createdAt,value
2018-07-28T00:00:16.898Z,4.10
2018-07-28T00:01:16.861Z,4.00
2018-07-28T00:02:16.830Z,4.50
2018-07-28T00:03:16.830Z,3.90
2018-07-28T00:04:16.753Z,4.00
2018-07-28T00:05:16.751Z,4.20
2018-07-28T00:06:16.687Z,4.30
2018-07-28T00:07:16.659Z,4.20
2018-07-28T00:08:16.627Z,4.20
2018-07-28T00:09:16.613Z,4.30
2018-07-28T00:10:16.558Z,4.10
2018-07-28T00:11:16.517Z,4.00
2018-07-28T00:12:16.506Z,4.00
2018-07-28T00:13:16.444Z,3.80
2018-07-28T00:14:16.448Z,4.20
2018-07-28T00:15:16.388Z,3.90
2018-07-28T00:16:16.353Z,3.90
2018-07-28T00:17:16.311Z,4.20
2018-07-28T00:18:16.276Z,4.10
2018-07-28T00:19:16.284Z,4.40
2018-07-28T00:20:16.216Z,4.30
2018-07-28T00:21:16.183Z,4.50
2018-07-28T00:22:16.150Z,4.10
2018-07-28T00:23:16.107Z,4.00
2018-07-28T00:24:16.074Z,3.80
2018-07-28T00:25:16.066Z,4.10
2018-07-28T00:26:16.005Z,4.10
2018-07-28T00:27:15.978Z,4.40
2018-07-28T00:28:15.945Z,4.30
2018-07-28T00:29:15.909Z,4.30
2018-07-28T00:30:15.904Z,4.80
2018-07-28T00:31:15.836Z,4.40
2018-07-28T00:32:15.802Z,4.20
2018-07-28T00:33:15.778Z,4.10
2018-07-28T00:34:15.743Z,4.20
2018-07-28T00:35:15.701Z,4.30
2018-07-28T00:36:15.689Z,4.10
2018-07-28T00:37:15.631Z,4.20
2018-07-28T00:38:15.606Z,4.30
2018-07-28T00:39:15.570Z,4.30
2018-07-28T00:40:15.538Z,4.20
2018-07-28T00:41:15.525Z,4.00
2018-07-28T00:42:15.470Z,4.20
2018-07-28T00:43:15.429Z,4.10
2018-07-28T00:44:15.392Z,4.30
2018-07-28T00:45:15.359Z,4.20
2018-07-28T00:46:15.386Z,4.00
2018-07-28T00:47:15.298Z,4.40
2018-07-28T00:48:15.264Z,4.20
2018-07-28T00:49:15.221Z,4.30
2018-07-28T00:50:15.189Z,4.20
2018-07-28T00:51:15.163Z,4.30
2018-07-28T00:52:15.150Z,4.00
2018-07-28T00:53:15.094Z,4.30
2018-07-28T00:54:15.073Z,4.00
2018-07-28T00:55:15.021Z,4.20
2018-07-28T00:56:14.984Z,4.10
2018-07-28T00:57:14.970Z,4.40
2018-07-28T00:58:14.914Z,4.40
2018-07-28T00:59:14.889Z,4.50
2018-07-28T01:00:14.856Z,4.40
2018-07-28T01:01:14.825Z,4.50
2018-07-28T01:02:14.809Z,4.10
2018-07-28T01:03:14.748Z,4.00
2018-07-28T01:04:14.709Z,4.40
2018-07-28T01:05:14.682Z,4.70
2018-07-28T01:06:14.648Z,4.70
2018-07-28T01:07:14.610Z,4.20
2018-07-28T01:08:14.601Z,4.40
2018-07-28T01:09:14.542Z,4.20
2018-07-28T01:10:14.504Z,4.40
2018-07-28T01:11:14.480Z,4.30
2018-07-28T01:12:14.444Z,4.20
2018-07-28T01:13:14.432Z,4.80
2018-07-28T01:14:14.377Z,4.30
2018-07-28T01:15:14.340Z,4.60
2018-07-28T01:16:14.300Z,4.50
2018-07-28T01:17:14.267Z,4.60
2018-07-28T01:18:14.256Z,4.80
2018-07-28T01:19:14.207Z,4.30
2018-07-28T01:20:14.170Z,4.60
2018-07-28T01:21:14.127Z,4.50
2018-07-28T01:22:14.095Z,4.50
2018-07-28T01:23:14.090Z,4.80
2018-07-28T01:24:14.030Z,4.80
2018-07-28T01:25:14.003Z,4.50
2018-07-28T01:26:13.967Z,4.70
2018-07-28T01:27:13.922Z,4.80
2018-07-28T01:28:13.908Z,4.90
2018-07-28T01:29:13.854Z,4.40
2018-07-28T01:30:13.820Z,4.60
2018-07-28T01:31:13.788Z,4.60
2018-07-28T01:32:13.759Z,4.80
2018-07-28T01:33:13.766Z,4.50
2018-07-28T01:34:13.688Z,5.00
2018-07-28T01:35:13.653Z,5.20
2018-07-28T01:36:13.614Z,4.90
2018-07-28T01:37:13.587Z,4.80
2018-07-28T01:38:13.572Z,5.00
2018-07-28T01:39:13.512Z,4.70
2018-07-28T01:40:13.475Z,4.50
2018-07-28T01:41:13.444Z,4.80
2018-07-28T01:42:13.406Z,5.00
2018-07-28T01:43:13.404Z,4.80
2018-07-28T01:44:13.346Z,5.00
2018-07-28T01:45:13.310Z,4.80
2018-07-28T01:46:13.276Z,5.00
2018-07-28T01:47:13.233Z,4.70
2018-07-28T01:48:13.202Z,4.80
2018-07-28T01:49:13.185Z,4.90
2018-07-28T01:50:13.131Z,4.80
2018-07-28T01:51:13.099Z,5.20
2018-07-28T01:52:13.067Z,4.80
2018-07-28T01:53:13.025Z,5.10
2018-07-28T01:54:13.009Z,4.50
2018-07-28T01:55:12.967Z,5.00
2018-07-28T01:56:12.929Z,4.90
2018-07-28T01:57:12.895Z,4.90
2018-07-28T01:58:12.861Z,5.00
2018-07-28T01:59:12.842Z,5.10
2018-07-28T02:00:12.784Z,5.10
2018-07-28T02:01:12.748Z,5.00
2018-07-28T02:02:12.712Z,5.10
2018-07-28T02:03:12.686Z,4.90
2018-07-28T02:04:12.651Z,5.00
2018-07-28T02:05:12.635Z,4.90
2018-07-28T02:06:12.582Z,5.20
2018-07-28T02:07:12.549Z,4.90
2018-07-28T02:08:12.508Z,5.30
2018-07-28T02:09:12.485Z,5.10
2018-07-28T02:10:12.464Z,5.30
2018-07-28T02:11:12.402Z,4.90
2018-07-28T02:12:12.365Z,4.70
2018-07-28T02:13:12.330Z,5.10
2018-07-28T02:14:12.294Z,4.70
2018-07-28T02:15:12.294Z,5.00
2018-07-28T02:16:12.236Z,4.90
2018-07-28T02:17:12.196Z,5.00
2018-07-28T02:18:12.162Z,4.90
2018-07-28T02:19:12.123Z,4.80
2018-07-28T02:20:12.088Z,5.10
2018-07-28T02:21:12.072Z,5.00
2018-07-28T02:22:12.018Z,5.20
2018-07-28T02:23:11.993Z,4.80
2018-07-28T02:24:11.955Z,4.90
2018-07-28T02:25:11.912Z,4.60
2018-07-28T02:26:11.897Z,4.80
2018-07-28T02:27:11.850Z,5.40
2018-07-28T02:28:11.817Z,4.70
2018-07-28T02:29:11.780Z,4.90
2018-07-28T02:30:11.744Z,5.10
2018-07-28T02:31:11.729Z,4.90
2018-07-28T02:32:11.669Z,5.30
2018-07-28T02:33:11.636Z,5.00
2018-07-28T02:34:11.600Z,4.90
2018-07-28T02:35:11.585Z,4.70
2018-07-28T02:36:11.563Z,4.80
2018-07-28T02:37:11.507Z,4.70
2018-07-28T02:38:11.465Z,5.20
2018-07-28T02:39:11.425Z,4.80
2018-07-28T02:40:11.395Z,4.90
2018-07-28T02:41:11.362Z,5.10
2018-07-28T02:42:11.347Z,5.10
2018-07-28T02:43:11.285Z,5.20
2018-07-28T02:44:11.250Z,5.00
2018-07-28T02:45:11.212Z,5.00
2018-07-28T02:46:11.179Z,5.40
2018-07-28T02:47:11.173Z,5.00
2018-07-28T02:48:11.117Z,5.40
2018-07-28T02:49:11.081Z,5.10
2018-07-28T02:50:11.043Z,5.20
2018-07-28T02:51:11.007Z,5.30
2018-07-28T02:52:10.993Z,5.20
2018-07-28T02:53:10.934Z,5.20
2018-07-28T02:54:10.899Z,5.30
2018-07-28T02:55:10.877Z,5.30
2018-07-28T02:56:10.838Z,5.30
2018-07-28T02:57:10.795Z,5.30
2018-07-28T02:58:10.780Z,5.70
2018-07-28T02:59:10.735Z,5.60
2018-07-28T03:00:10.721Z,5.90
2018-07-28T03:01:10.660Z,5.60
2018-07-28T03:02:10.624Z,6.00
2018-07-28T03:03:10.603Z,5.40
2018-07-28T03:04:10.547Z,6.00
2018-07-28T03:05:10.512Z,5.70
2018-07-28T03:06:10.476Z,5.50
2018-07-28T03:07:10.455Z,5.70
2018-07-28T03:08:10.437Z,5.80
2018-07-28T03:09:10.375Z,5.50
2018-07-28T03:10:10.346Z,6.30
2018-07-28T03:11:10.305Z,5.60
2018-07-28T03:12:10.275Z,6.10
2018-07-28T03:13:10.264Z,5.40
2018-07-28T03:14:10.201Z,5.60
2018-07-28T03:15:10.162Z,5.70
2018-07-28T03:16:10.135Z,5.80
2018-07-28T03:17:10.090Z,5.80
2018-07-28T03:18:10.054Z,5.70
2018-07-28T03:19:10.056Z,6.10
2018-07-28T03:20:09.996Z,5.40
2018-07-28T03:21:09.966Z,5.50
2018-07-28T03:22:09.923Z,6.20
2018-07-28T03:23:09.896Z,5.60
2018-07-28T03:24:09.868Z,6.10
2018-07-28T03:25:09.811Z,5.50
2018-07-28T03:26:09.778Z,5.90
2018-07-28T03:27:09.744Z,5.70
2018-07-28T03:28:09.713Z,5.90
2018-07-28T03:29:09.697Z,5.70
2018-07-28T03:30:09.635Z,5.70
2018-07-28T03:31:09.608Z,6.00
2018-07-28T03:32:09.572Z,5.60
2018-07-28T03:33:09.537Z,5.40
2018-07-28T03:34:09.508Z,5.40
2018-07-28T03:35:09.489Z,5.70
2018-07-28T03:36:09.425Z,5.60
2018-07-28T03:37:09.389Z,5.40
2018-07-28T03:38:09.359Z,5.80
2018-07-28T03:39:09.333Z,5.40
2018-07-28T03:40:09.317Z,5.50
2018-07-28T03:41:09.255Z,5.60
2018-07-28T03:42:09.221Z,5.50
2018-07-28T03:43:09.183Z,5.30
2018-07-28T03:44:09.143Z,5.50
2018-07-28T03:45:09.142Z,5.40
2018-07-28T03:46:09.083Z,5.40
2018-07-28T03:47:09.041Z,5.40
2018-07-28T03:48:09.005Z,5.60
2018-07-28T03:49:08.970Z,5.30
2018-07-28T03:50:08.938Z,5.60
2018-07-28T03:51:18.550Z,5.30
2018-07-28T03:52:08.874Z,5.10
2018-07-28T03:53:08.826Z,5.30
2018-07-28T03:54:08.791Z,5.30
2018-07-28T03:55:08.762Z,5.30
2018-07-28T03:56:08.742Z,5.40
2018-07-28T03:57:08.695Z,5.20
2018-07-28T03:58:08.657Z,5.10
2018-07-28T03:59:08.618Z,5.40
2018-07-28T04:00:08.584Z,4.90
2018-07-28T04:01:08.573Z,5.30
2018-07-28T04:02:08.518Z,5.40
2018-07-28T04:03:08.485Z,5.40
2018-07-28T04:04:08.502Z,5.10
2018-07-28T04:05:08.404Z,5.30
2018-07-28T04:06:08.395Z,5.40
2018-07-28T04:07:08.335Z,5.50
2018-07-28T04:08:08.298Z,5.30
2018-07-28T04:09:08.273Z,5.00
2018-07-28T04:10:08.234Z,5.00
2018-07-28T04:11:08.201Z,5.40
2018-07-28T04:12:08.192Z,5.30
2018-07-28T04:13:08.125Z,5.60
2018-07-28T04:14:08.089Z,5.10
2018-07-28T04:15:08.062Z,5.20
2018-07-28T04:16:08.028Z,5.40
2018-07-28T04:17:08.003Z,5.20
2018-07-28T04:18:07.950Z,5.10
2018-07-28T04:19:07.912Z,5.00
2018-07-28T04:20:07.877Z,5.10
2018-07-28T04:21:07.849Z,4.80
2018-07-28T04:22:07.839Z,5.40
2018-07-28T04:23:07.784Z,5.20
2018-07-28T04:24:07.744Z,5.00
2018-07-28T04:25:07.713Z,5.40
2018-07-28T04:26:07.665Z,5.10
2018-07-28T04:27:07.631Z,5.70
2018-07-28T04:28:07.623Z,5.40
2018-07-28T04:29:07.570Z,5.20
2018-07-28T04:30:17.573Z,5.00
2018-07-28T04:31:07.510Z,5.20
2018-07-28T04:32:07.464Z,5.30
2018-07-28T04:33:07.449Z,5.40
2018-07-28T04:34:07.390Z,5.50
2018-07-28T04:35:07.347Z,5.50
2018-07-28T04:36:07.348Z,5.90
2018-07-28T04:37:07.333Z,5.10
2018-07-28T04:38:07.263Z,5.00
2018-07-28T04:39:07.214Z,5.40
2018-07-28T04:40:07.179Z,5.30
2018-07-28T04:41:07.143Z,5.60
2018-07-28T04:42:07.108Z,5.70
2018-07-28T04:43:07.091Z,6.00
2018-07-28T04:44:07.146Z,5.60
2018-07-28T04:45:07.005Z,5.30
2018-07-28T04:46:06.971Z,5.20
2018-07-28T04:47:06.926Z,5.40
2018-07-28T04:48:06.890Z,5.30
2018-07-28T04:49:06.875Z,4.90
2018-07-28T04:50:17.124Z,5.10
2018-07-28T04:51:06.799Z,5.40
2018-07-28T04:52:06.757Z,4.90
2018-07-28T04:53:06.741Z,5.10
2018-07-28T04:54:06.681Z,5.40
2018-07-28T04:55:06.646Z,5.00
2018-07-28T04:56:06.629Z,5.30
2018-07-28T04:57:06.617Z,5.20
2018-07-28T04:58:06.572Z,5.40
2018-07-28T04:59:06.505Z,5.30
2018-07-28T05:00:06.472Z,5.10
2018-07-28T05:01:06.443Z,5.00
2018-07-28T05:02:06.405Z,5.10
2018-07-28T05:03:06.398Z,5.10
2018-07-28T05:04:06.338Z,4.90
2018-07-28T05:05:06.293Z,5.10
2018-07-28T05:06:06.262Z,5.10
2018-07-28T05:07:06.226Z,5.10
2018-07-28T05:08:06.220Z,5.00
2018-07-28T05:09:06.168Z,5.20
2018-07-28T05:10:16.167Z,5.10
2018-07-28T05:11:06.086Z,4.80
2018-07-28T05:12:06.055Z,5.00
2018-07-28T05:13:06.046Z,5.00
2018-07-28T05:14:05.992Z,4.90
2018-07-28T05:15:05.949Z,4.80
2018-07-28T05:16:06.069Z,4.50
2018-07-28T05:17:05.884Z,4.80
2018-07-28T05:18:05.873Z,4.70
2018-07-28T05:19:05.828Z,5.10
2018-07-28T05:20:05.795Z,4.90
2018-07-28T05:21:05.762Z,5.10
2018-07-28T05:22:05.726Z,4.60
2018-07-28T05:23:05.708Z,4.70
2018-07-28T05:24:05.653Z,4.60
2018-07-28T05:25:05.619Z,4.60
2018-07-28T05:26:05.591Z,4.60
2018-07-28T05:27:05.585Z,4.50
2018-07-28T05:28:05.527Z,5.00
2018-07-28T05:29:16.712Z,4.40
2018-07-28T05:30:05.466Z,4.90
2018-07-28T05:31:05.432Z,4.20
2018-07-28T05:32:05.424Z,4.40
2018-07-28T05:33:05.364Z,4.60
2018-07-28T05:34:05.330Z,4.70
2018-07-28T05:35:05.299Z,5.00
2018-07-28T05:36:05.270Z,4.70
2018-07-28T05:37:05.292Z,4.60
2018-07-28T05:38:05.212Z,4.40
2018-07-28T05:39:05.264Z,4.90
2018-07-28T05:40:05.145Z,5.10
2018-07-28T05:41:05.149Z,5.10
2018-07-28T05:42:05.097Z,4.90
2018-07-28T05:43:05.049Z,4.60
2018-07-28T05:44:05.015Z,4.80
2018-07-28T05:45:04.978Z,4.60
2018-07-28T05:46:04.950Z,4.60
2018-07-28T05:47:04.938Z,5.20
2018-07-28T05:48:04.880Z,4.80
2018-07-28T05:49:04.853Z,5.40
2018-07-28T05:50:04.877Z,4.90
2018-07-28T05:51:04.789Z,5.20
2018-07-28T05:52:04.779Z,5.00
2018-07-28T05:53:04.715Z,4.90
2018-07-28T05:54:04.704Z,4.80
2018-07-28T05:55:04.651Z,5.00
2018-07-28T05:56:04.614Z,4.90
2018-07-28T05:57:04.609Z,5.20
2018-07-28T05:58:04.556Z,5.30
2018-07-28T05:59:04.514Z,5.20
2018-07-28T06:00:04.482Z,5.00
2018-07-28T06:01:04.456Z,5.60
2018-07-28T06:02:04.445Z,5.20
2018-07-28T06:03:04.386Z,4.90
2018-07-28T06:04:04.356Z,4.90
2018-07-28T06:05:04.310Z,5.10
2018-07-28T06:06:04.276Z,5.20
2018-07-28T06:07:14.286Z,5.00
2018-07-28T06:08:04.215Z,5.20
2018-07-28T06:09:04.182Z,5.30
2018-07-28T06:10:04.150Z,5.10
2018-07-28T06:11:04.128Z,5.00
2018-07-28T06:12:04.077Z,5.30
2018-07-28T06:13:04.047Z,4.70
2018-07-28T06:14:04.048Z,4.90
2018-07-28T06:15:03.974Z,5.10
2018-07-28T06:16:03.956Z,4.80
2018-07-28T06:17:03.902Z,4.60
2018-07-28T06:18:03.866Z,4.70
2018-07-28T06:19:03.839Z,5.00
2018-07-28T06:20:03.805Z,4.80
2018-07-28T06:21:03.791Z,5.00
2018-07-28T06:22:03.768Z,4.80
2018-07-28T06:23:03.693Z,5.00
2018-07-28T06:24:03.660Z,5.20
2018-07-28T06:25:03.624Z,5.00
2018-07-28T06:26:03.687Z,5.80
2018-07-28T06:27:03.563Z,5.20
2018-07-28T06:28:03.528Z,5.70
2018-07-28T06:29:03.489Z,5.10
2018-07-28T06:30:03.457Z,5.20
2018-07-28T06:31:03.446Z,5.70
2018-07-28T06:32:03.391Z,4.80
2018-07-28T06:33:03.358Z,5.70
2018-07-28T06:34:03.318Z,5.80
2018-07-28T06:35:03.277Z,5.80
2018-07-28T06:36:03.263Z,6.30
2018-07-28T06:37:03.213Z,5.50
2018-07-28T06:38:03.169Z,5.80
2018-07-28T06:39:03.141Z,6.40
2018-07-28T06:40:03.110Z,6.30
2018-07-28T06:41:03.094Z,6.50
2018-07-28T06:42:03.035Z,5.90
2018-07-28T06:43:02.998Z,5.80
2018-07-28T06:44:02.958Z,5.90
2018-07-28T06:45:02.930Z,6.30
2018-07-28T06:46:02.914Z,6.10
2018-07-28T06:47:02.854Z,6.00
2018-07-28T06:48:02.818Z,6.50
2018-07-28T06:49:02.781Z,6.30
2018-07-28T06:50:02.748Z,6.10
2018-07-28T06:51:02.736Z,6.20
2018-07-28T06:52:02.679Z,6.10
2018-07-28T06:53:02.643Z,5.80
2018-07-28T06:54:02.614Z,5.90
2018-07-28T06:55:02.588Z,5.90
2018-07-28T06:56:02.529Z,5.80
2018-07-28T06:57:02.499Z,5.60
2018-07-28T06:58:02.461Z,6.20
2018-07-28T06:59:02.437Z,6.60
2018-07-28T07:00:02.421Z,6.50
2018-07-28T07:01:02.350Z,6.40
2018-07-28T07:02:02.322Z,6.30
2018-07-28T07:03:02.291Z,6.30
2018-07-28T07:04:02.259Z,6.50
2018-07-28T07:05:02.266Z,6.70
2018-07-28T07:06:02.181Z,6.40
2018-07-28T07:07:02.150Z,6.60
2018-07-28T07:08:02.136Z,6.90
2018-07-28T07:09:02.071Z,6.80
2018-07-28T07:10:02.054Z,6.30
2018-07-28T07:11:02.005Z,7.00
2018-07-28T07:12:01.972Z,6.80
2018-07-28T07:13:01.934Z,7.10
2018-07-28T07:14:01.907Z,6.80
2018-07-28T07:15:01.885Z,6.80
2018-07-28T07:16:01.836Z,6.80
2018-07-28T07:17:01.811Z,6.50
2018-07-28T07:18:01.764Z,6.40
2018-07-28T07:19:01.721Z,6.80
2018-07-28T07:20:01.708Z,7.40
2018-07-28T07:21:01.658Z,6.90
2018-07-28T07:22:01.614Z,6.80
2018-07-28T07:23:01.587Z,6.50
2018-07-28T07:24:01.554Z,7.10
2018-07-28T07:25:01.549Z,7.10
2018-07-28T07:26:01.487Z,7.40
2018-07-28T07:27:01.442Z,7.90
2018-07-28T07:28:01.408Z,7.90
2018-07-28T07:29:01.374Z,7.50
2018-07-28T07:30:01.365Z,8.00
2018-07-28T07:31:01.316Z,7.10
2018-07-28T07:32:01.279Z,6.90
2018-07-28T07:33:01.241Z,7.30
2018-07-28T07:34:01.205Z,7.20
2018-07-28T07:35:01.200Z,7.20
2018-07-28T07:36:01.151Z,6.70
2018-07-28T07:37:01.112Z,7.10
2018-07-28T07:38:01.085Z,6.90
2018-07-28T07:39:01.057Z,7.40
2018-07-28T07:40:01.003Z,7.00
2018-07-28T07:41:00.965Z,7.10
2018-07-28T07:42:00.936Z,6.40
2018-07-28T07:43:00.902Z,6.90
2018-07-28T07:44:00.894Z,7.00
2018-07-28T07:45:00.838Z,7.00
2018-07-28T07:46:00.805Z,6.40
2018-07-28T07:47:00.765Z,6.70
2018-07-28T07:48:00.732Z,6.60
2018-07-28T07:49:00.724Z,6.90
2018-07-28T07:50:00.673Z,7.00
2018-07-28T07:51:00.629Z,6.90
2018-07-28T07:52:00.593Z,7.10
2018-07-28T07:53:00.559Z,6.80
2018-07-28T07:54:00.578Z,6.70
2018-07-28T07:55:00.498Z,7.00
2018-07-28T07:56:00.465Z,7.00
2018-07-28T07:57:00.434Z,7.00
2018-07-28T07:58:00.399Z,7.10
2018-07-28T07:59:00.380Z,6.80
2018-07-28T08:00:00.326Z,6.70
2018-07-28T08:01:00.289Z,6.40
2018-07-28T08:02:00.256Z,6.90
2018-07-28T08:03:00.236Z,6.80
2018-07-28T08:04:00.218Z,6.40
2018-07-28T08:05:00.159Z,6.60
2018-07-28T08:06:00.127Z,6.60
2018-07-28T08:07:00.101Z,6.20
2018-07-28T08:08:00.069Z,6.40
2018-07-28T08:09:00.052Z,6.60
2018-07-28T08:09:59.996Z,6.30
2018-07-28T08:10:59.957Z,6.50
2018-07-28T08:11:59.925Z,6.40
2018-07-28T08:12:59.891Z,6.40
2018-07-28T08:13:59.879Z,6.50
2018-07-28T08:14:59.831Z,6.70
2018-07-28T08:15:59.798Z,6.90
2018-07-28T08:16:59.764Z,6.90
2018-07-28T08:17:59.732Z,6.60
2018-07-28T08:18:59.716Z,6.20
2018-07-28T08:19:59.661Z,7.20
2018-07-28T08:20:59.647Z,6.70
2018-07-28T08:21:59.598Z,6.80
2018-07-28T08:22:59.584Z,6.60
2018-07-28T08:23:59.529Z,6.20
2018-07-28T08:24:59.493Z,6.70
2018-07-28T08:25:59.463Z,6.60
2018-07-28T08:26:59.439Z,6.60
2018-07-28T08:27:59.430Z,7.20
2018-07-28T08:28:59.372Z,6.50
2018-07-28T08:29:59.341Z,6.90
2018-07-28T08:30:59.299Z,6.60
2018-07-28T08:31:59.267Z,6.60
2018-07-28T08:32:59.231Z,7.00
2018-07-28T08:33:59.229Z,7.00
2018-07-28T08:34:59.179Z,6.80
2018-07-28T08:35:59.141Z,7.20
2018-07-28T08:36:59.102Z,6.50
2018-07-28T08:37:59.073Z,6.80
2018-07-28T08:38:59.043Z,6.70
2018-07-28T08:39:59.067Z,6.90
2018-07-28T08:40:58.977Z,6.40
2018-07-28T08:41:58.943Z,6.80
2018-07-28T08:42:58.906Z,6.50
2018-07-28T08:43:58.869Z,6.30
2018-07-28T08:44:58.859Z,6.40
2018-07-28T08:45:58.803Z,6.40
2018-07-28T08:46:58.781Z,6.40
2018-07-28T08:47:58.741Z,6.10
2018-07-28T08:48:58.788Z,6.10
2018-07-28T08:49:58.699Z,6.40
2018-07-28T08:50:58.637Z,6.10
2018-07-28T08:51:58.605Z,6.40
2018-07-28T08:52:58.582Z,6.20
2018-07-28T08:53:58.542Z,6.10
2018-07-28T08:54:58.532Z,6.10
2018-07-28T08:55:58.470Z,6.20
2018-07-28T08:56:58.437Z,6.40
2018-07-28T08:57:58.401Z,6.30
2018-07-28T08:58:58.377Z,6.60
2018-07-28T08:59:58.342Z,6.30
2018-07-28T09:00:58.332Z,6.00
2018-07-28T09:01:58.274Z,5.90
2018-07-28T09:02:58.235Z,5.80
2018-07-28T09:03:58.203Z,5.50
2018-07-28T09:04:58.172Z,5.50
2018-07-28T09:05:58.201Z,5.10
2018-07-28T09:06:58.109Z,5.00
2018-07-28T09:07:58.075Z,5.20
2018-07-28T09:08:58.038Z,5.50
2018-07-28T09:09:58.003Z,5.30
2018-07-28T09:10:58.001Z,4.90
2018-07-28T09:11:57.941Z,5.00
2018-07-28T09:12:57.909Z,5.00
2018-07-28T09:13:57.874Z,5.00
2018-07-28T09:14:57.836Z,5.30
2018-07-28T09:15:57.802Z,5.40
2018-07-28T09:16:57.797Z,5.20
2018-07-28T09:17:57.743Z,4.70
2018-07-28T09:18:57.712Z,5.10
2018-07-28T09:19:57.678Z,4.90
2018-07-28T09:20:57.644Z,5.60
2018-07-28T09:21:57.632Z,5.30
2018-07-28T09:22:57.578Z,5.00
2018-07-28T09:23:57.540Z,5.50
2018-07-28T09:24:57.515Z,5.50
2018-07-28T09:25:57.484Z,5.40
2018-07-28T09:26:57.479Z,5.50
2018-07-28T09:27:57.412Z,5.60
2018-07-28T09:28:57.376Z,5.10
2018-07-28T09:29:57.343Z,5.30
2018-07-28T09:30:57.319Z,5.60
2018-07-28T09:31:57.311Z,5.30
2018-07-28T09:32:57.255Z,5.30
2018-07-28T09:33:57.220Z,4.90
2018-07-28T09:34:57.190Z,4.90
2018-07-28T09:35:57.151Z,5.40
2018-07-28T09:36:57.147Z,5.40
2018-07-28T09:37:57.108Z,5.00
2018-07-28T09:38:57.060Z,5.30
2018-07-28T09:39:57.030Z,5.20
2018-07-28T09:40:56.995Z,4.70
2018-07-28T09:41:56.959Z,5.10
2018-07-28T09:42:56.959Z,4.60
2018-07-28T09:43:56.906Z,5.20
2018-07-28T09:44:56.876Z,4.50
2018-07-28T09:45:56.849Z,4.80
2018-07-28T09:46:56.834Z,4.60
2018-07-28T09:47:56.804Z,4.70
2018-07-28T09:48:56.745Z,4.40
2018-07-28T09:49:56.776Z,4.10
2018-07-28T09:50:56.693Z,3.80
2018-07-28T09:51:56.663Z,4.00
2018-07-28T09:52:56.658Z,4.10
2018-07-28T09:53:56.628Z,4.10
2018-07-28T09:54:56.567Z,3.80
2018-07-28T09:55:56.539Z,4.00
2018-07-28T09:56:56.516Z,3.80
2018-07-28T09:57:56.493Z,3.50
2018-07-28T09:58:56.471Z,4.00
2018-07-28T09:59:56.420Z,3.90
2018-07-28T10:00:56.390Z,3.70
2018-07-28T10:01:56.376Z,3.50
2018-07-28T10:02:56.337Z,3.40
2018-07-28T10:03:56.368Z,3.40
2018-07-28T10:04:56.278Z,3.20
2018-07-28T10:05:56.249Z,3.30
2018-07-28T10:06:56.221Z,3.50
2018-07-28T10:07:56.264Z,3.10
2018-07-28T10:08:56.164Z,3.30
2018-07-28T10:09:56.147Z,3.50
2018-07-28T10:10:56.106Z,3.40
2018-07-28T10:11:56.089Z,3.60
2018-07-28T10:12:56.039Z,9.30
2018-07-28T10:13:56.010Z,6.00
2018-07-28T10:15:06.920Z,4.00
2018-07-28T10:15:55.958Z,4.10
2018-07-28T10:16:55.920Z,3.70
2018-07-28T10:17:55.908Z,3.50
2018-07-28T10:18:55.862Z,3.30
2018-07-28T10:19:55.857Z,3.40
2018-07-28T10:20:55.819Z,3.10
2018-07-28T10:21:55.782Z,3.40
2018-07-28T10:22:55.831Z,3.60
2018-07-28T10:23:55.719Z,3.50
2018-07-28T10:24:55.710Z,3.40
2018-07-28T10:25:55.655Z,3.50
2018-07-28T10:26:55.627Z,3.60
2018-07-28T10:27:55.600Z,3.40
2018-07-28T10:28:55.571Z,3.80
2018-07-28T10:29:55.536Z,3.70
2018-07-28T10:30:55.527Z,3.60
2018-07-28T10:31:55.473Z,3.80
2018-07-28T10:32:55.446Z,3.90
2018-07-28T10:33:55.417Z,3.80
2018-07-28T10:35:05.444Z,3.80
2018-07-28T10:35:55.371Z,3.30
2018-07-28T10:36:55.323Z,3.40
2018-07-28T10:37:55.283Z,3.80
2018-07-28T10:38:55.260Z,3.50
2018-07-28T10:39:55.242Z,3.70
2018-07-28T10:40:55.214Z,3.60
2018-07-28T10:41:55.176Z,3.20
2018-07-28T10:42:55.134Z,3.60
2018-07-28T10:43:55.104Z,3.70
2018-07-28T10:44:55.074Z,3.20
2018-07-28T10:45:55.042Z,3.30
2018-07-28T10:46:55.024Z,3.80
2018-07-28T10:47:54.970Z,3.70
2018-07-28T10:48:54.944Z,3.60
2018-07-28T10:49:54.909Z,3.80
2018-07-28T10:50:54.886Z,3.50
2018-07-28T10:51:54.913Z,3.60
2018-07-28T10:52:54.826Z,3.80
2018-07-28T10:53:54.795Z,3.80
2018-07-28T10:54:54.760Z,3.70
2018-07-28T10:55:54.735Z,3.70
2018-07-28T10:56:54.740Z,3.50
2018-07-28T10:57:54.721Z,3.90
2018-07-28T10:58:54.648Z,3.80
2018-07-28T10:59:54.620Z,4.10
2018-07-28T11:00:54.587Z,3.90
2018-07-28T11:01:54.572Z,4.10
2018-07-28T11:02:54.565Z,4.00
2018-07-28T11:03:54.517Z,4.00
2018-07-28T11:04:54.492Z,4.00
2018-07-28T11:05:54.461Z,4.50
2018-07-28T11:06:54.429Z,4.00
2018-07-28T11:07:54.425Z,4.20
2018-07-28T11:08:54.379Z,4.40
2018-07-28T11:09:54.356Z,4.20
2018-07-28T11:10:54.341Z,4.60
2018-07-28T11:11:54.310Z,4.90
2018-07-28T11:12:54.300Z,4.20
2018-07-28T11:13:54.247Z,4.10
2018-07-28T11:14:54.234Z,4.40
2018-07-28T11:15:54.206Z,4.20
2018-07-28T11:16:54.187Z,4.50
2018-07-28T11:17:54.187Z,4.40
2018-07-28T11:18:54.149Z,4.70
2018-07-28T11:19:54.099Z,4.40
2018-07-28T11:20:54.080Z,4.50
2018-07-28T11:21:54.052Z,4.80
2018-07-28T11:22:54.016Z,4.60
2018-07-28T11:23:54.010Z,4.80
2018-07-28T11:24:53.970Z,4.70
2018-07-28T11:25:53.957Z,4.70
2018-07-28T11:26:53.924Z,4.50
2018-07-28T11:27:53.927Z,4.70
2018-07-28T11:28:53.856Z,4.90
2018-07-28T11:29:53.827Z,5.10
2018-07-28T11:30:53.809Z,5.40
2018-07-28T11:31:53.800Z,5.20
2018-07-28T11:32:53.755Z,4.70
2018-07-28T11:33:53.753Z,4.80
2018-07-28T11:34:53.696Z,4.90
2018-07-28T11:35:53.673Z,5.20
2018-07-28T11:36:53.646Z,4.80
2018-07-28T11:37:53.671Z,5.10
2018-07-28T11:38:53.624Z,4.80
2018-07-28T11:39:53.571Z,5.00
2018-07-28T11:40:53.540Z,5.10
2018-07-28T11:41:53.514Z,4.90
2018-07-28T11:42:53.481Z,4.80
2018-07-28T11:43:53.480Z,5.10
2018-07-28T11:44:53.435Z,4.30
2018-07-28T11:45:53.466Z,4.60
2018-07-28T11:46:53.372Z,4.70
2018-07-28T11:47:53.344Z,4.90
2018-07-28T11:48:53.312Z,4.80
2018-07-28T11:49:53.317Z,4.70
2018-07-28T11:50:53.268Z,5.10
2018-07-28T11:51:53.240Z,5.20
2018-07-28T11:52:53.211Z,5.00
2018-07-28T11:53:53.210Z,5.30
2018-07-28T11:54:53.148Z,5.50
2018-07-28T11:55:53.118Z,5.20
2018-07-28T11:56:53.090Z,5.10
2018-07-28T11:57:53.062Z,4.80
2018-07-28T11:58:53.077Z,4.70
2018-07-28T11:59:53.018Z,5.20
2018-07-28T12:00:52.980Z,5.20
2018-07-28T12:01:52.956Z,4.70
2018-07-28T12:02:52.937Z,5.10
2018-07-28T12:03:52.919Z,5.20
2018-07-28T12:04:52.872Z,4.70
2018-07-28T12:05:52.854Z,5.00
2018-07-28T12:06:52.818Z,4.60
2018-07-28T12:07:52.785Z,4.80
2018-07-28T12:08:52.794Z,4.50
2018-07-28T12:09:52.737Z,4.60
2018-07-28T12:10:52.718Z,4.30
2018-07-28T12:11:52.695Z,3.80
2018-07-28T12:12:52.656Z,4.00
2018-07-28T12:13:52.635Z,3.90
2018-07-28T12:14:52.619Z,4.00
2018-07-28T12:15:52.575Z,3.70
2018-07-28T12:16:52.555Z,3.80
2018-07-28T12:17:52.524Z,3.60
2018-07-28T12:18:52.515Z,3.40
2018-07-28T12:19:52.465Z,3.70
2018-07-28T12:20:52.436Z,3.70
2018-07-28T12:21:52.412Z,3.80
2018-07-28T12:22:52.390Z,3.50
2018-07-28T12:23:52.431Z,3.90
2018-07-28T12:24:52.338Z,3.70
2018-07-28T12:25:52.308Z,3.60
2018-07-28T12:26:52.273Z,3.70
2018-07-28T12:27:52.245Z,3.80
2018-07-28T12:28:52.239Z,4.20
2018-07-28T12:29:52.189Z,3.80
2018-07-28T12:30:52.168Z,3.90
2018-07-28T12:31:52.146Z,3.80
2018-07-28T12:32:52.104Z,3.80
2018-07-28T12:33:52.101Z,3.70
2018-07-28T12:34:52.108Z,4.10
2018-07-28T12:35:52.040Z,4.10
2018-07-28T12:36:52.009Z,4.50
2018-07-28T12:37:51.973Z,4.50
2018-07-28T12:38:51.964Z,4.50
2018-07-28T12:39:51.914Z,4.50
2018-07-28T12:40:51.892Z,4.60
2018-07-28T12:41:51.863Z,4.60
2018-07-28T12:42:51.843Z,4.50
2018-07-28T12:43:51.848Z,4.50
2018-07-28T12:44:51.791Z,4.80
2018-07-28T12:45:51.759Z,4.60
2018-07-28T12:46:51.731Z,4.70
2018-07-28T12:47:51.706Z,5.10
2018-07-28T12:48:51.681Z,4.80
2018-07-28T12:49:51.679Z,4.20
2018-07-28T12:50:51.621Z,4.40
2018-07-28T12:51:51.600Z,4.10
2018-07-28T12:52:51.574Z,4.30
2018-07-28T12:53:51.545Z,4.40
2018-07-28T12:54:51.523Z,4.40
2018-07-28T12:55:51.528Z,4.40
2018-07-28T12:56:51.477Z,4.50
2018-07-28T12:57:51.452Z,4.10
2018-07-28T12:58:51.414Z,4.20
2018-07-28T12:59:51.391Z,4.40
2018-07-28T13:00:51.383Z,4.40
2018-07-28T13:01:51.334Z,4.40
2018-07-28T13:02:51.319Z,4.50
2018-07-28T13:03:51.359Z,4.60
2018-07-28T13:04:51.251Z,4.70
2018-07-28T13:05:51.251Z,4.80
2018-07-28T13:06:51.207Z,4.70
2018-07-28T13:07:51.182Z,4.90
2018-07-28T13:08:51.160Z,4.30
2018-07-28T13:09:51.148Z,4.40
2018-07-28T13:10:51.158Z,4.20
2018-07-28T13:11:51.074Z,4.00
2018-07-28T13:12:51.044Z,4.30
2018-07-28T13:13:51.014Z,4.20
2018-07-28T13:14:50.999Z,3.90
2018-07-28T13:15:50.971Z,4.30
2018-07-28T13:16:50.966Z,4.10
2018-07-28T13:17:50.923Z,4.10